Flight Track Log - Related Links

Times and Time Zones

All times are in EDT time to prevent confusion due to time zone crossing. See the N770NC flight status page for this flight to view local times or setup timezone preferences in your user account.

Time Position Orientation Groundspeed Altitude Reporting Facility
EDT Latitude Longitude Course Direction KTS MPH feet Rate Location/Type
Wed 09:39:27 AM 41.9381 -87.9100 166° South 167 192 1,800  Level Chicago Center
Wed 09:39:43 AM 41.9167 -87.9000 161° South 188 216 2,200 1,694 Climbing Chicago TRACON
Wed 09:41:31 AM 41.8106 -87.8806 172° South 259 298 5,300 2,082 Climbing Chicago Center
Wed 09:42:00 AM 41.5590 -87.7087 168° South  Level Estimated
Wed 09:42:33 AM 41.7261 -87.8228 153° Southeast 284 327 8,100  Level Chicago Center
Wed 09:43:00 AM 41.4533 -87.6597 180° South  Level Estimated
Wed 09:43:35 AM 41.6461 -87.7983 167° South 297 342 10,000  Level Chicago Center
Wed 09:44:00 AM 41.3476 -87.6108 166° South  Level Estimated
Wed 09:44:37 AM 41.5644 -87.7706 166° South 301 346 12,200  Level Chicago Center
Wed 09:45:39 AM 41.4750 -87.7575 174° South 316 364 13,100 1,306 Climbing Chicago Center
Wed 09:46:41 AM 41.3756 -87.7319 169° South 362 417 14,900 1,645 Climbing Chicago Center
Wed 09:47:43 AM 41.2761 -87.6833 160° South 376 433 16,500 1,597 Climbing Chicago Center
Wed 09:48:45 AM 41.1694 -87.6469 166° South 389 448 18,200 1,694 Climbing Chicago Center
Wed 09:49:47 AM 41.0411 -87.6053 166° South 396 456 20,000 1,403 Climbing Chicago Center
Wed 09:50:49 AM 40.9306 -87.5733 168° South 402 463 21,100 1,161 Climbing Chicago Center
Wed 09:51:51 AM 40.8181 -87.5400 167° South 411 473 22,400 1,065 Climbing Chicago Center
Wed 09:52:53 AM 40.7044 -87.5064 167° South 418 481 23,300 878 Climbing Chicago Center
Wed 09:53:54 AM 40.5886 -87.4878 173° South 419 482 24,200 878 Climbing Chicago Center
Wed 09:54:56 AM 40.4683 -87.4658 172° South 432 497 25,100 1,016 Climbing Chicago Center
Wed 09:55:58 AM 40.3197 -87.4344 171° South 447 514 26,300 968 Climbing Chicago Center
Wed 09:57:00 AM 40.1942 -87.4094 171° South 455 524 27,100 778 Climbing Chicago Center
Wed 09:57:46 AM 40.0997 -87.3908 171° South 463 533 27,700 1,000 Climbing Indianapolis Center
Wed 09:58:48 AM 39.9692 -87.3667 172° South 470 541 28,900 1,161 Climbing Indianapolis Center
Wed 09:59:50 AM 39.8386 -87.3425 172° South 471 542 30,100 532 Climbing Indianapolis Center
Wed 10:00:52 AM 39.7083 -87.3167 171° South 472 543 30,000 -48 Descending Indianapolis Center
Wed 10:01:54 AM 39.5519 -87.2664 166° South 478 550 30,000  Level Indianapolis Center
Wed 10:02:56 AM 39.4231 -87.2278 167° South 475 547 30,000  Level Indianapolis Center
Wed 10:03:58 AM 39.2942 -87.1869 166° South 475 547 30,000 48 Level Indianapolis Center
Wed 10:05:00 AM 39.1636 -87.1478 167° South 479 551 30,100 484 Climbing Indianapolis Center
Wed 10:06:02 AM 39.0347 -87.1069 166° South 475 547 31,000 435 Climbing Indianapolis Center
Wed 10:07:04 AM 38.9031 -87.0656 166° South 481 554 31,000  Level Indianapolis Center
Wed 10:08:06 AM 38.7711 -87.0261 167° South 484 557 31,000  Level Indianapolis Center
Wed 10:09:08 AM 38.6392 -86.9850 166° South 484 557 31,000  Level Indianapolis Center
Wed 10:10:10 AM 38.4792 -86.9356 166° South 485 558 31,000  Level Indianapolis Center
Wed 10:11:12 AM 38.3447 -86.8864 164° South 489 563 31,000  Level Indianapolis Center
Wed 10:12:14 AM 38.2092 -86.8378 164° South 491 565 31,000  Level Indianapolis Center
Wed 10:13:16 AM 38.0781 -86.7944 165° South 481 554 31,000  Level Indianapolis Center
Wed 10:14:18 AM 37.9461 -86.7486 165° South 487 560 31,000  Level Indianapolis Center
Wed 10:15:21 AM 37.8136 -86.7033 165° South 490 564 31,000  Level Indianapolis Center
Wed 10:16:23 AM 37.6817 -86.6597 165° South 487 560 31,000  Level Indianapolis Center
Wed 10:17:25 AM 37.5500 -86.6167 165° South 486 559 31,000  Level Indianapolis Center
Wed 10:18:27 AM 37.4125 -86.5736 166° South 487 560 31,000  Level Indianapolis Center
Wed 10:19:29 AM 37.2778 -86.5386 168° South 489 563 31,000  Level Indianapolis Center
Wed 10:20:31 AM 37.1206 -86.4994 169° South 487 560 31,000  Level Indianapolis Center
Wed 10:21:33 AM 36.9861 -86.4661 169° South 488 562 31,000  Level Indianapolis Center
Wed 10:22:35 AM 36.8508 -86.4356 170° South 488 562 31,000  Level Indianapolis Center
Wed 10:23:37 AM 36.7156 -86.4053 170° South 487 560 31,000  Level Indianapolis Center
Wed 10:24:44 AM 36.5592 -86.3683 169° South 486 559 31,000  Level Memphis Center
Wed 10:25:44 AM 36.4397 -86.3433 170° South 486 559 31,000  Level Memphis Center
Wed 10:26:44 AM 36.3053 -86.3139 170° South 486 559 31,000  Level Memphis Center
Wed 10:27:44 AM 36.1708 -86.2869 171° South 486 559 31,000 -350 Level Memphis Center
Wed 10:28:44 AM 36.0364 -86.2553 169° South 486 559 30,300 -800 Descending Memphis Center
Wed 10:29:44 AM 35.8917 -86.2242 170° South 491 565 29,400 -500 Descending Memphis Center
Wed 10:31:20 AM 35.6914 -86.1739 168° South 487 560 29,000 -154 Descending Atlanta Center
Wed 10:32:20 AM 35.5667 -86.1425 168° South 482 555 29,000 50 Level Atlanta Center
Wed 10:33:20 AM 35.4425 -86.0883 160° South 476 548 29,100 50 Climbing Atlanta Center
Wed 10:34:20 AM 35.3247 -86.0142 153° Southeast 471 542 29,100  Level Atlanta Center
Wed 10:35:20 AM 35.2092 -85.9350 151° Southeast 478 550 29,100  Level Atlanta Center
Wed 10:36:20 AM 35.0958 -85.8514 149° Southeast 478 550 29,100  Level Atlanta Center
Wed 10:37:20 AM 34.9822 -85.7653 148° Southeast 483 556 29,100  Level Atlanta Center
Wed 10:38:20 AM 34.8664 -85.6792 149° Southeast 483 556 29,100 -50 Level Atlanta Center
Wed 10:39:20 AM 34.7528 -85.5886 147° Southeast 483 556 29,000 -1,550 Descending Atlanta Center
Wed 10:40:20 AM 34.6475 -85.4981 145° Southeast 483 556 26,000 -3,500 Descending Atlanta Center
Wed 10:41:20 AM 34.5381 -85.4131 147° Southeast 472 543 22,000 -3,550 Descending Atlanta Center
Wed 10:42:20 AM 34.4325 -85.3283 146° Southeast 472 543 18,900 -2,950 Descending Atlanta Center
Wed 10:43:20 AM 34.3269 -85.2461 147° Southeast 442 509 16,100 -2,200 Descending Atlanta Center
Wed 10:44:20 AM 34.2439 -85.1847 149° Southeast 413 475 14,500 -1,100 Descending Atlanta Center
Wed 10:45:20 AM 34.1550 -85.1031 143° Southeast 400 460 13,900 -250 Descending Atlanta Center
Wed 10:46:20 AM 34.0786 -85.0044 133° Southeast 395 455 14,000 -150 Climbing Atlanta Center
Wed 10:47:20 AM 34.0061 -84.9133 134° Southeast 390 449 13,600 -950 Descending Atlanta Center
Wed 10:48:20 AM 33.9317 -84.8325 138° Southeast 367 422 12,100 -800 Descending Atlanta Center
Wed 10:49:20 AM 33.8667 -84.7500 133° Southeast 276 318 12,000 -50 Descending Atlanta TRACON
Wed 10:50:20 AM 33.8167 -84.6833 132° Southeast 260 299 12,000  Level Atlanta TRACON
Wed 10:51:20 AM 33.7667 -84.6167 132° Southeast 262 302 12,000 -150 Level Atlanta TRACON
Wed 10:52:20 AM 33.7333 -84.5500 121° Southeast 263 303 11,700 -850 Descending Atlanta TRACON
Wed 10:53:20 AM 33.7167 -84.4667 103° East 249 287 10,300 -1,650 Descending Atlanta TRACON
Wed 10:54:20 AM 33.7167 -84.3833 90° East 251 289 8,400 -1,850 Descending Atlanta TRACON
Wed 10:55:20 AM 33.7167 -84.3000 90° East 228 262 6,600 -2,000 Descending Atlanta TRACON
Wed 10:56:20 AM 33.7000 -84.2333 107° East 239 275 4,400 -2,200 Descending Atlanta TRACON

Login

Don't have an account? Register now (free) for customized features, flight alerts, and more!